sensor_id;sensor_type;location;lat;lon;timestamp;temperature;humidity
10411;DHT22;5251;52.112;8.606;2023-12-28T00:00:42;11.20;99.00
10411;DHT22;5251;52.112;8.606;2023-12-28T00:03:07;11.20;99.10
10411;DHT22;5251;52.112;8.606;2023-12-28T00:05:33;11.20;99.50
10411;DHT22;5251;52.112;8.606;2023-12-28T00:07:59;11.20;99.80
10411;DHT22;5251;52.112;8.606;2023-12-28T00:10:27;11.20;99.90
10411;DHT22;5251;52.112;8.606;2023-12-28T00:12:54;11.20;99.90
10411;DHT22;5251;52.112;8.606;2023-12-28T00:15:19;11.20;99.90
10411;DHT22;5251;52.112;8.606;2023-12-28T00:17:45;11.10;99.90
10411;DHT22;5251;52.112;8.606;2023-12-28T00:20:12;11.10;99.90
10411;DHT22;5251;52.112;8.606;2023-12-28T00:22:37;11.10;99.90
10411;DHT22;5251;52.112;8.606;2023-12-28T00:25:04;11.10;99.90
10411;DHT22;5251;52.112;8.606;2023-12-28T00:27:30;11.10;99.90
10411;DHT22;5251;52.112;8.606;2023-12-28T00:29:55;11.10;99.90
10411;DHT22;5251;52.112;8.606;2023-12-28T00:32:21;11.10;99.90
10411;DHT22;5251;52.112;8.606;2023-12-28T00:34:46;11.00;99.90
10411;DHT22;5251;52.112;8.606;2023-12-28T00:37:12;11.00;99.90
10411;DHT22;5251;52.112;8.606;2023-12-28T00:39:38;11.00;99.90
10411;DHT22;5251;52.112;8.606;2023-12-28T00:42:05;11.00;99.90
10411;DHT22;5251;52.112;8.606;2023-12-28T00:44:30;11.00;99.90
10411;DHT22;5251;52.112;8.606;2023-12-28T00:46:56;11.00;99.90
10411;DHT22;5251;52.112;8.606;2023-12-28T00:49:21;11.00;99.90
10411;DHT22;5251;52.112;8.606;2023-12-28T00:51:47;11.00;99.90
10411;DHT22;5251;52.112;8.606;2023-12-28T00:54:12;11.00;99.90
10411;DHT22;5251;52.112;8.606;2023-12-28T00:56:38;11.00;99.90
10411;DHT22;5251;52.112;8.606;2023-12-28T00:59:04;11.00;99.90
10411;DHT22;5251;52.112;8.606;2023-12-28T01:01:29;11.00;99.90
10411;DHT22;5251;52.112;8.606;2023-12-28T01:03:58;11.00;99.90
10411;DHT22;5251;52.112;8.606;2023-12-28T01:06:23;11.00;99.90
10411;DHT22;5251;52.112;8.606;2023-12-28T01:08:56;11.00;99.90
10411;DHT22;5251;52.112;8.606;2023-12-28T01:11:22;11.00;99.90
10411;DHT22;5251;52.112;8.606;2023-12-28T01:13:48;11.00;99.90
10411;DHT22;5251;52.112;8.606;2023-12-28T01:16:13;11.10;99.90
10411;DHT22;5251;52.112;8.606;2023-12-28T01:18:39;11.10;99.90
10411;DHT22;5251;52.112;8.606;2023-12-28T01:21:05;11.10;99.90
10411;DHT22;5251;52.112;8.606;2023-12-28T01:23:32;11.10;99.90
10411;DHT22;5251;52.112;8.606;2023-12-28T01:25:57;11.10;99.90
10411;DHT22;5251;52.112;8.606;2023-12-28T01:28:23;11.10;99.90
10411;DHT22;5251;52.112;8.606;2023-12-28T01:30:49;11.10;99.90
10411;DHT22;5251;52.112;8.606;2023-12-28T01:33:14;11.10;99.90
10411;DHT22;5251;52.112;8.606;2023-12-28T01:35:41;11.10;99.90
10411;DHT22;5251;52.112;8.606;2023-12-28T01:38:07;11.10;99.90
10411;DHT22;5251;52.112;8.606;2023-12-28T01:40:33;11.20;99.90
10411;DHT22;5251;52.112;8.606;2023-12-28T01:42:58;11.20;99.90
10411;DHT22;5251;52.112;8.606;2023-12-28T01:45:24;11.20;99.90
10411;DHT22;5251;52.112;8.606;2023-12-28T01:47:51;11.20;99.90
10411;DHT22;5251;52.112;8.606;2023-12-28T01:50:18;11.20;99.90
10411;DHT22;5251;52.112;8.606;2023-12-28T01:52:44;11.30;99.90
10411;DHT22;5251;52.112;8.606;2023-12-28T01:55:10;11.30;99.90
10411;DHT22;5251;52.112;8.606;2023-12-28T01:57:37;11.30;99.90
10411;DHT22;5251;52.112;8.606;2023-12-28T02:00:03;11.30;99.90
10411;DHT22;5251;52.112;8.606;2023-12-28T02:02:31;11.40;99.90
10411;DHT22;5251;52.112;8.606;2023-12-28T02:04:57;11.40;99.90
10411;DHT22;5251;52.112;8.606;2023-12-28T02:07:24;11.40;99.90
10411;DHT22;5251;52.112;8.606;2023-12-28T02:09:49;11.40;99.90
10411;DHT22;5251;52.112;8.606;2023-12-28T02:12:15;11.50;99.90
10411;DHT22;5251;52.112;8.606;2023-12-28T02:14:41;11.40;99.90
10411;DHT22;5251;52.112;8.606;2023-12-28T02:17:13;11.50;99.90
10411;DHT22;5251;52.112;8.606;2023-12-28T02:19:49;11.50;99.90
10411;DHT22;5251;52.112;8.606;2023-12-28T02:22:16;11.50;99.90
10411;DHT22;5251;52.112;8.606;2023-12-28T02:25:06;11.50;99.90
10411;DHT22;5251;52.112;8.606;2023-12-28T02:27:52;11.60;99.90
10411;DHT22;5251;52.112;8.606;2023-12-28T02:30:21;11.60;99.90
10411;DHT22;5251;52.112;8.606;2023-12-28T02:35:44;11.60;99.90
10411;DHT22;5251;52.112;8.606;2023-12-28T02:38:14;11.70;99.90
10411;DHT22;5251;52.112;8.606;2023-12-28T02:40:44;11.70;99.90
10411;DHT22;5251;52.112;8.606;2023-12-28T02:43:10;11.70;99.90
10411;DHT22;5251;52.112;8.606;2023-12-28T02:45:37;11.70;99.90
10411;DHT22;5251;52.112;8.606;2023-12-28T02:48:04;11.70;99.90
10411;DHT22;5251;52.112;8.606;2023-12-28T02:50:30;11.70;99.90
10411;DHT22;5251;52.112;8.606;2023-12-28T02:52:56;11.80;99.90
10411;DHT22;5251;52.112;8.606;2023-12-28T02:55:22;11.80;99.90
10411;DHT22;5251;52.112;8.606;2023-12-28T02:57:50;11.80;99.90
10411;DHT22;5251;52.112;8.606;2023-12-28T03:00:16;11.80;99.90
10411;DHT22;5251;52.112;8.606;2023-12-28T03:02:42;11.70;99.90
10411;DHT22;5251;52.112;8.606;2023-12-28T03:05:08;11.70;99.90
10411;DHT22;5251;52.112;8.606;2023-12-28T03:07:34;11.70;99.90
10411;DHT22;5251;52.112;8.606;2023-12-28T03:10:00;11.70;99.90
10411;DHT22;5251;52.112;8.606;2023-12-28T03:12:27;11.70;99.90
10411;DHT22;5251;52.112;8.606;2023-12-28T03:14:53;11.70;99.90
10411;DHT22;5251;52.112;8.606;2023-12-28T03:17:19;11.80;99.90
10411;DHT22;5251;52.112;8.606;2023-12-28T03:19:44;11.70;99.90
10411;DHT22;5251;52.112;8.606;2023-12-28T03:22:10;11.70;99.90
10411;DHT22;5251;52.112;8.606;2023-12-28T03:24:37;11.70;99.90
10411;DHT22;5251;52.112;8.606;2023-12-28T03:27:04;11.60;99.90
10411;DHT22;5251;52.112;8.606;2023-12-28T03:29:29;11.60;99.90
10411;DHT22;5251;52.112;8.606;2023-12-28T03:31:55;11.60;99.90
10411;DHT22;5251;52.112;8.606;2023-12-28T03:34:21;11.60;99.90
10411;DHT22;5251;52.112;8.606;2023-12-28T03:36:50;11.60;99.90
10411;DHT22;5251;52.112;8.606;2023-12-28T03:39:16;11.60;99.90
10411;DHT22;5251;52.112;8.606;2023-12-28T03:41:42;11.60;99.90
10411;DHT22;5251;52.112;8.606;2023-12-28T03:44:07;11.60;99.90
10411;DHT22;5251;52.112;8.606;2023-12-28T03:46:33;11.50;99.90
10411;DHT22;5251;52.112;8.606;2023-12-28T03:48:58;11.60;99.90
10411;DHT22;5251;52.112;8.606;2023-12-28T03:51:24;11.60;99.90
10411;DHT22;5251;52.112;8.606;2023-12-28T03:53:50;11.60;99.90
10411;DHT22;5251;52.112;8.606;2023-12-28T03:56:26;11.60;99.90
10411;DHT22;5251;52.112;8.606;2023-12-28T03:58:52;11.60;99.90
10411;DHT22;5251;52.112;8.606;2023-12-28T04:01:19;11.60;99.90
10411;DHT22;5251;52.112;8.606;2023-12-28T04:03:45;11.60;99.90
10411;DHT22;5251;52.112;8.606;2023-12-28T04:06:11;11.60;99.90
10411;DHT22;5251;52.112;8.606;2023-12-28T04:08:38;11.60;99.90
10411;DHT22;5251;52.112;8.606;2023-12-28T04:11:04;11.60;99.90
10411;DHT22;5251;52.112;8.606;2023-12-28T04:13:29;11.60;99.90
10411;DHT22;5251;52.112;8.606;2023-12-28T04:15:55;11.60;99.90
10411;DHT22;5251;52.112;8.606;2023-12-28T04:18:20;11.60;99.90
10411;DHT22;5251;52.112;8.606;2023-12-28T04:20:46;11.60;99.90
10411;DHT22;5251;52.112;8.606;2023-12-28T04:23:12;11.60;99.90
10411;DHT22;5251;52.112;8.606;2023-12-28T04:25:37;11.60;99.90
10411;DHT22;5251;52.112;8.606;2023-12-28T04:28:03;11.60;99.90
10411;DHT22;5251;52.112;8.606;2023-12-28T04:30:28;11.60;99.90
10411;DHT22;5251;52.112;8.606;2023-12-28T04:32:54;11.60;99.90
10411;DHT22;5251;52.112;8.606;2023-12-28T04:35:20;11.60;99.90
10411;DHT22;5251;52.112;8.606;2023-12-28T04:37:45;11.50;99.90
10411;DHT22;5251;52.112;8.606;2023-12-28T04:40:11;11.60;99.90
10411;DHT22;5251;52.112;8.606;2023-12-28T04:42:39;11.50;99.90
10411;DHT22;5251;52.112;8.606;2023-12-28T04:45:06;11.50;99.90
10411;DHT22;5251;52.112;8.606;2023-12-28T04:47:32;11.50;99.90
10411;DHT22;5251;52.112;8.606;2023-12-28T04:49:57;11.60;99.90
10411;DHT22;5251;52.112;8.606;2023-12-28T04:52:23;11.60;99.90
10411;DHT22;5251;52.112;8.606;2023-12-28T04:54:48;11.60;99.90
10411;DHT22;5251;52.112;8.606;2023-12-28T04:57:14;11.60;99.90
10411;DHT22;5251;52.112;8.606;2023-12-28T04:59:40;11.60;99.90
10411;DHT22;5251;52.112;8.606;2023-12-28T05:02:06;11.60;99.90
10411;DHT22;5251;52.112;8.606;2023-12-28T05:04:32;11.60;99.90
10411;DHT22;5251;52.112;8.606;2023-12-28T05:06:57;11.60;99.90
10411;DHT22;5251;52.112;8.606;2023-12-28T05:09:23;11.60;99.90
10411;DHT22;5251;52.112;8.606;2023-12-28T05:11:49;11.60;99.90
10411;DHT22;5251;52.112;8.606;2023-12-28T05:14:14;11.70;99.90
10411;DHT22;5251;52.112;8.606;2023-12-28T05:16:40;11.70;99.90
10411;DHT22;5251;52.112;8.606;2023-12-28T05:19:06;11.70;99.90
10411;DHT22;5251;52.112;8.606;2023-12-28T05:21:31;11.70;99.90
10411;DHT22;5251;52.112;8.606;2023-12-28T05:23:57;11.70;99.90
10411;DHT22;5251;52.112;8.606;2023-12-28T05:26:22;11.70;99.90
10411;DHT22;5251;52.112;8.606;2023-12-28T05:28:49;11.70;99.90
10411;DHT22;5251;52.112;8.606;2023-12-28T05:31:15;11.70;99.90
10411;DHT22;5251;52.112;8.606;2023-12-28T05:33:40;11.80;99.90
10411;DHT22;5251;52.112;8.606;2023-12-28T05:36:06;11.80;99.90
10411;DHT22;5251;52.112;8.606;2023-12-28T05:38:32;11.80;99.90
10411;DHT22;5251;52.112;8.606;2023-12-28T05:40:57;11.90;99.90
10411;DHT22;5251;52.112;8.606;2023-12-28T05:43:23;11.90;99.90
10411;DHT22;5251;52.112;8.606;2023-12-28T05:45:49;11.90;99.90
10411;DHT22;5251;52.112;8.606;2023-12-28T05:48:15;12.00;99.90
10411;DHT22;5251;52.112;8.606;2023-12-28T05:50:40;12.00;99.90
10411;DHT22;5251;52.112;8.606;2023-12-28T05:53:06;12.10;99.90
10411;DHT22;5251;52.112;8.606;2023-12-28T05:55:32;12.10;99.90
10411;DHT22;5251;52.112;8.606;2023-12-28T05:57:57;12.10;99.90
10411;DHT22;5251;52.112;8.606;2023-12-28T06:00:23;12.10;99.90
10411;DHT22;5251;52.112;8.606;2023-12-28T06:02:48;12.10;99.90
10411;DHT22;5251;52.112;8.606;2023-12-28T06:05:17;12.10;99.90
10411;DHT22;5251;52.112;8.606;2023-12-28T06:07:43;12.10;99.90
10411;DHT22;5251;52.112;8.606;2023-12-28T06:10:09;12.10;99.90
10411;DHT22;5251;52.112;8.606;2023-12-28T06:12:35;12.10;99.90
10411;DHT22;5251;52.112;8.606;2023-12-28T06:15:01;12.20;99.90
10411;DHT22;5251;52.112;8.606;2023-12-28T06:17:28;12.20;99.90
10411;DHT22;5251;52.112;8.606;2023-12-28T06:19:54;12.20;99.90
10411;DHT22;5251;52.112;8.606;2023-12-28T06:22:19;12.20;99.90
10411;DHT22;5251;52.112;8.606;2023-12-28T06:24:45;12.20;99.90
10411;DHT22;5251;52.112;8.606;2023-12-28T06:27:11;12.20;99.90
10411;DHT22;5251;52.112;8.606;2023-12-28T06:29:36;12.20;99.90
10411;DHT22;5251;52.112;8.606;2023-12-28T06:32:02;12.30;99.90
10411;DHT22;5251;52.112;8.606;2023-12-28T06:34:28;12.20;99.90
10411;DHT22;5251;52.112;8.606;2023-12-28T06:36:54;12.20;99.90
10411;DHT22;5251;52.112;8.606;2023-12-28T06:39:19;12.20;99.90
10411;DHT22;5251;52.112;8.606;2023-12-28T06:41:48;12.20;99.90
10411;DHT22;5251;52.112;8.606;2023-12-28T06:44:14;12.20;99.90
10411;DHT22;5251;52.112;8.606;2023-12-28T06:46:40;12.20;99.90
10411;DHT22;5251;52.112;8.606;2023-12-28T06:49:06;12.30;99.90
10411;DHT22;5251;52.112;8.606;2023-12-28T06:51:32;12.30;99.90
10411;DHT22;5251;52.112;8.606;2023-12-28T06:53:58;12.30;99.90
10411;DHT22;5251;52.112;8.606;2023-12-28T06:56:24;12.30;99.90
10411;DHT22;5251;52.112;8.606;2023-12-28T06:58:50;12.30;99.90
10411;DHT22;5251;52.112;8.606;2023-12-28T07:01:16;12.30;99.90
10411;DHT22;5251;52.112;8.606;2023-12-28T07:03:42;12.30;99.90
10411;DHT22;5251;52.112;8.606;2023-12-28T07:06:08;12.30;99.90
10411;DHT22;5251;52.112;8.606;2023-12-28T07:08:33;12.30;99.90
10411;DHT22;5251;52.112;8.606;2023-12-28T07:10:59;12.30;99.90
10411;DHT22;5251;52.112;8.606;2023-12-28T07:13:25;12.30;99.90
10411;DHT22;5251;52.112;8.606;2023-12-28T07:15:51;12.30;99.90
10411;DHT22;5251;52.112;8.606;2023-12-28T07:18:16;12.30;99.90
10411;DHT22;5251;52.112;8.606;2023-12-28T07:20:42;12.30;99.90
10411;DHT22;5251;52.112;8.606;2023-12-28T07:23:08;12.30;99.90
10411;DHT22;5251;52.112;8.606;2023-12-28T07:25:34;12.30;99.90
10411;DHT22;5251;52.112;8.606;2023-12-28T07:28:00;12.20;99.90
10411;DHT22;5251;52.112;8.606;2023-12-28T07:30:26;12.30;99.90
10411;DHT22;5251;52.112;8.606;2023-12-28T07:32:51;12.20;99.90
10411;DHT22;5251;52.112;8.606;2023-12-28T07:35:17;12.30;99.90
10411;DHT22;5251;52.112;8.606;2023-12-28T07:37:43;12.30;99.90
10411;DHT22;5251;52.112;8.606;2023-12-28T07:40:12;12.20;99.90
10411;DHT22;5251;52.112;8.606;2023-12-28T07:42:37;12.20;99.90
10411;DHT22;5251;52.112;8.606;2023-12-28T07:45:03;12.30;99.90
10411;DHT22;5251;52.112;8.606;2023-12-28T07:47:29;12.30;99.90
10411;DHT22;5251;52.112;8.606;2023-12-28T07:49:55;12.30;99.90
10411;DHT22;5251;52.112;8.606;2023-12-28T07:52:21;12.30;99.90
10411;DHT22;5251;52.112;8.606;2023-12-28T07:54:46;12.30;99.90
10411;DHT22;5251;52.112;8.606;2023-12-28T07:57:12;12.40;99.90
10411;DHT22;5251;52.112;8.606;2023-12-28T07:59:37;12.40;99.90
10411;DHT22;5251;52.112;8.606;2023-12-28T08:02:03;12.40;99.90
10411;DHT22;5251;52.112;8.606;2023-12-28T08:04:29;12.40;99.90
10411;DHT22;5251;52.112;8.606;2023-12-28T08:06:55;12.40;99.90
10411;DHT22;5251;52.112;8.606;2023-12-28T08:09:20;12.40;99.90
10411;DHT22;5251;52.112;8.606;2023-12-28T08:11:46;12.40;99.90
10411;DHT22;5251;52.112;8.606;2023-12-28T08:14:11;12.40;99.90
10411;DHT22;5251;52.112;8.606;2023-12-28T08:16:37;12.40;99.90
10411;DHT22;5251;52.112;8.606;2023-12-28T08:19:03;12.40;99.90
10411;DHT22;5251;52.112;8.606;2023-12-28T08:21:28;12.40;99.90
10411;DHT22;5251;52.112;8.606;2023-12-28T08:23:54;12.40;99.90
10411;DHT22;5251;52.112;8.606;2023-12-28T08:26:20;12.40;99.90
10411;DHT22;5251;52.112;8.606;2023-12-28T08:28:45;12.40;99.90
10411;DHT22;5251;52.112;8.606;2023-12-28T08:31:11;12.40;99.90
10411;DHT22;5251;52.112;8.606;2023-12-28T08:33:37;12.40;99.90
10411;DHT22;5251;52.112;8.606;2023-12-28T08:36:09;12.50;99.90
10411;DHT22;5251;52.112;8.606;2023-12-28T08:38:35;12.40;99.90
10411;DHT22;5251;52.112;8.606;2023-12-28T08:41:00;12.40;99.90
10411;DHT22;5251;52.112;8.606;2023-12-28T08:43:29;12.40;99.90
10411;DHT22;5251;52.112;8.606;2023-12-28T08:45:54;12.50;99.90
10411;DHT22;5251;52.112;8.606;2023-12-28T08:48:21;12.50;99.90
10411;DHT22;5251;52.112;8.606;2023-12-28T08:50:46;12.50;99.90
10411;DHT22;5251;52.112;8.606;2023-12-28T08:53:12;12.50;99.90
10411;DHT22;5251;52.112;8.606;2023-12-28T08:55:37;12.50;99.90
10411;DHT22;5251;52.112;8.606;2023-12-28T08:58:03;12.60;99.90
10411;DHT22;5251;52.112;8.606;2023-12-28T09:00:29;12.60;99.90
10411;DHT22;5251;52.112;8.606;2023-12-28T09:02:54;12.60;99.90
10411;DHT22;5251;52.112;8.606;2023-12-28T09:05:20;12.70;99.90
10411;DHT22;5251;52.112;8.606;2023-12-28T09:07:46;12.60;99.90
10411;DHT22;5251;52.112;8.606;2023-12-28T09:10:12;12.70;99.90
10411;DHT22;5251;52.112;8.606;2023-12-28T09:12:40;12.70;99.90
10411;DHT22;5251;52.112;8.606;2023-12-28T09:15:06;12.70;99.80
10411;DHT22;5251;52.112;8.606;2023-12-28T09:17:33;12.80;99.90
10411;DHT22;5251;52.112;8.606;2023-12-28T09:19:58;12.80;99.60
10411;DHT22;5251;52.112;8.606;2023-12-28T09:22:24;12.80;99.70
10411;DHT22;5251;52.112;8.606;2023-12-28T09:24:51;12.80;99.60
10411;DHT22;5251;52.112;8.606;2023-12-28T09:27:17;12.90;99.70
10411;DHT22;5251;52.112;8.606;2023-12-28T09:29:42;12.90;99.40
10411;DHT22;5251;52.112;8.606;2023-12-28T09:32:08;12.90;99.50
10411;DHT22;5251;52.112;8.606;2023-12-28T09:34:34;12.90;99.40
10411;DHT22;5251;52.112;8.606;2023-12-28T09:36:59;12.90;99.40
10411;DHT22;5251;52.112;8.606;2023-12-28T09:39:25;12.90;99.40
10411;DHT22;5251;52.112;8.606;2023-12-28T09:42:17;13.00;99.40
10411;DHT22;5251;52.112;8.606;2023-12-28T09:44:43;13.00;99.40
10411;DHT22;5251;52.112;8.606;2023-12-28T09:47:10;13.00;99.30
10411;DHT22;5251;52.112;8.606;2023-12-28T09:49:39;13.10;99.30
10411;DHT22;5251;52.112;8.606;2023-12-28T09:52:06;13.10;99.20
10411;DHT22;5251;52.112;8.606;2023-12-28T09:54:31;13.10;99.10
10411;DHT22;5251;52.112;8.606;2023-12-28T09:56:57;13.10;99.10
10411;DHT22;5251;52.112;8.606;2023-12-28T09:59:24;13.20;99.10
10411;DHT22;5251;52.112;8.606;2023-12-28T10:01:50;13.20;98.80
10411;DHT22;5251;52.112;8.606;2023-12-28T10:04:16;13.20;98.70
10411;DHT22;5251;52.112;8.606;2023-12-28T10:06:42;13.30;98.60
10411;DHT22;5251;52.112;8.606;2023-12-28T10:09:07;13.30;98.70
10411;DHT22;5251;52.112;8.606;2023-12-28T10:11:33;13.30;98.60
10411;DHT22;5251;52.112;8.606;2023-12-28T10:13:59;13.30;98.70
10411;DHT22;5251;52.112;8.606;2023-12-28T10:16:25;13.40;98.70
10411;DHT22;5251;52.112;8.606;2023-12-28T10:18:51;13.40;98.60
10411;DHT22;5251;52.112;8.606;2023-12-28T10:21:16;13.40;98.80
10411;DHT22;5251;52.112;8.606;2023-12-28T10:23:42;13.40;98.80
10411;DHT22;5251;52.112;8.606;2023-12-28T10:26:08;13.50;98.70
10411;DHT22;5251;52.112;8.606;2023-12-28T10:28:37;13.50;98.40
10411;DHT22;5251;52.112;8.606;2023-12-28T10:31:07;13.50;98.10
10411;DHT22;5251;52.112;8.606;2023-12-28T10:33:37;13.50;98.10
10411;DHT22;5251;52.112;8.606;2023-12-28T10:36:07;13.50;98.00
10411;DHT22;5251;52.112;8.606;2023-12-28T10:38:37;13.50;98.00
10411;DHT22;5251;52.112;8.606;2023-12-28T10:41:13;13.50;98.10
10411;DHT22;5251;52.112;8.606;2023-12-28T10:43:46;13.50;98.00
10411;DHT22;5251;52.112;8.606;2023-12-28T10:46:26;13.50;98.00
10411;DHT22;5251;52.112;8.606;2023-12-28T10:49:00;13.50;97.90
10411;DHT22;5251;52.112;8.606;2023-12-28T10:51:32;13.50;97.80
10411;DHT22;5251;52.112;8.606;2023-12-28T10:59:30;13.50;97.80
10411;DHT22;5251;52.112;8.606;2023-12-28T11:02:00;13.50;97.80
10411;DHT22;5251;52.112;8.606;2023-12-28T11:06:56;13.50;97.70
10411;DHT22;5251;52.112;8.606;2023-12-28T11:09:24;13.50;97.80
10411;DHT22;5251;52.112;8.606;2023-12-28T11:11:53;13.50;98.00
10411;DHT22;5251;52.112;8.606;2023-12-28T11:14:20;13.50;98.00
10411;DHT22;5251;52.112;8.606;2023-12-28T11:16:46;13.50;98.00
10411;DHT22;5251;52.112;8.606;2023-12-28T11:19:12;13.50;98.00
10411;DHT22;5251;52.112;8.606;2023-12-28T11:21:38;13.60;98.10
10411;DHT22;5251;52.112;8.606;2023-12-28T11:24:05;13.50;98.10
10411;DHT22;5251;52.112;8.606;2023-12-28T11:26:31;13.60;98.10
10411;DHT22;5251;52.112;8.606;2023-12-28T11:29:06;13.60;97.80
10411;DHT22;5251;52.112;8.606;2023-12-28T11:31:35;13.70;97.80
10411;DHT22;5251;52.112;8.606;2023-12-28T11:34:01;13.60;97.90
10411;DHT22;5251;52.112;8.606;2023-12-28T11:36:34;13.60;97.90
10411;DHT22;5251;52.112;8.606;2023-12-28T11:39:05;13.60;97.70
10411;DHT22;5251;52.112;8.606;2023-12-28T11:41:36;13.60;97.60
10411;DHT22;5251;52.112;8.606;2023-12-28T11:44:05;13.70;97.90
10411;DHT22;5251;52.112;8.606;2023-12-28T11:46:32;13.70;98.00
10411;DHT22;5251;52.112;8.606;2023-12-28T11:49:05;13.70;97.80
10411;DHT22;5251;52.112;8.606;2023-12-28T11:51:32;13.70;97.50
10411;DHT22;5251;52.112;8.606;2023-12-28T11:53:58;13.80;97.30
10411;DHT22;5251;52.112;8.606;2023-12-28T11:56:25;13.80;97.30
10411;DHT22;5251;52.112;8.606;2023-12-28T11:58:51;13.80;97.10
10411;DHT22;5251;52.112;8.606;2023-12-28T12:01:17;13.80;97.00
10411;DHT22;5251;52.112;8.606;2023-12-28T12:03:43;13.90;97.40
10411;DHT22;5251;52.112;8.606;2023-12-28T12:06:08;13.90;97.10
10411;DHT22;5251;52.112;8.606;2023-12-28T12:08:35;13.90;96.90
10411;DHT22;5251;52.112;8.606;2023-12-28T12:11:05;13.90;97.00
10411;DHT22;5251;52.112;8.606;2023-12-28T12:13:31;13.90;97.40
10411;DHT22;5251;52.112;8.606;2023-12-28T12:15:57;13.90;96.90
10411;DHT22;5251;52.112;8.606;2023-12-28T12:18:25;13.90;96.90
10411;DHT22;5251;52.112;8.606;2023-12-28T12:20:50;13.90;97.10
10411;DHT22;5251;52.112;8.606;2023-12-28T12:23:16;13.90;97.20
10411;DHT22;5251;52.112;8.606;2023-12-28T12:25:42;14.00;97.00
10411;DHT22;5251;52.112;8.606;2023-12-28T12:28:11;14.00;96.90
10411;DHT22;5251;52.112;8.606;2023-12-28T12:30:36;14.00;96.90
10411;DHT22;5251;52.112;8.606;2023-12-28T12:33:02;14.00;96.70
10411;DHT22;5251;52.112;8.606;2023-12-28T12:35:29;14.00;96.70
10411;DHT22;5251;52.112;8.606;2023-12-28T12:37:54;14.00;96.80
10411;DHT22;5251;52.112;8.606;2023-12-28T12:40:20;14.10;96.80
10411;DHT22;5251;52.112;8.606;2023-12-28T12:42:53;14.10;96.70
10411;DHT22;5251;52.112;8.606;2023-12-28T12:45:20;14.00;96.50
10411;DHT22;5251;52.112;8.606;2023-12-28T12:47:47;14.00;96.50
10411;DHT22;5251;52.112;8.606;2023-12-28T12:50:13;14.00;96.70
10411;DHT22;5251;52.112;8.606;2023-12-28T12:52:39;14.10;96.90
10411;DHT22;5251;52.112;8.606;2023-12-28T12:55:05;14.10;96.70
10411;DHT22;5251;52.112;8.606;2023-12-28T12:57:31;14.00;96.40
10411;DHT22;5251;52.112;8.606;2023-12-28T12:59:56;14.00;96.40
10411;DHT22;5251;52.112;8.606;2023-12-28T13:02:23;14.10;96.10
10411;DHT22;5251;52.112;8.606;2023-12-28T13:04:52;14.00;96.00
10411;DHT22;5251;52.112;8.606;2023-12-28T13:07:19;14.00;96.20
10411;DHT22;5251;52.112;8.606;2023-12-28T13:09:44;14.00;96.30
10411;DHT22;5251;52.112;8.606;2023-12-28T13:12:10;14.00;96.30
10411;DHT22;5251;52.112;8.606;2023-12-28T13:14:36;14.00;95.80
10411;DHT22;5251;52.112;8.606;2023-12-28T13:17:02;14.00;96.00
10411;DHT22;5251;52.112;8.606;2023-12-28T13:19:28;14.00;96.00
10411;DHT22;5251;52.112;8.606;2023-12-28T13:21:53;14.00;95.80
10411;DHT22;5251;52.112;8.606;2023-12-28T13:24:19;14.00;95.90
10411;DHT22;5251;52.112;8.606;2023-12-28T13:26:45;14.00;95.90
10411;DHT22;5251;52.112;8.606;2023-12-28T13:29:10;14.00;95.80
10411;DHT22;5251;52.112;8.606;2023-12-28T13:31:36;14.00;95.50
10411;DHT22;5251;52.112;8.606;2023-12-28T13:34:02;14.00;95.90
10411;DHT22;5251;52.112;8.606;2023-12-28T13:36:27;14.00;95.70
10411;DHT22;5251;52.112;8.606;2023-12-28T13:38:53;14.00;95.40
10411;DHT22;5251;52.112;8.606;2023-12-28T13:41:19;14.00;95.20
10411;DHT22;5251;52.112;8.606;2023-12-28T13:43:45;13.90;95.40
10411;DHT22;5251;52.112;8.606;2023-12-28T13:46:10;13.90;95.60
10411;DHT22;5251;52.112;8.606;2023-12-28T13:48:36;13.90;95.20
10411;DHT22;5251;52.112;8.606;2023-12-28T13:51:05;13.90;95.10
10411;DHT22;5251;52.112;8.606;2023-12-28T13:53:30;13.90;95.50
10411;DHT22;5251;52.112;8.606;2023-12-28T13:55:59;13.90;95.80
10411;DHT22;5251;52.112;8.606;2023-12-28T13:58:25;14.00;95.90
10411;DHT22;5251;52.112;8.606;2023-12-28T14:00:50;14.00;94.90
10411;DHT22;5251;52.112;8.606;2023-12-28T14:03:16;13.90;94.90
10411;DHT22;5251;52.112;8.606;2023-12-28T14:05:41;14.00;94.90
10411;DHT22;5251;52.112;8.606;2023-12-28T14:08:08;14.00;95.20
10411;DHT22;5251;52.112;8.606;2023-12-28T14:10:34;14.00;94.90
10411;DHT22;5251;52.112;8.606;2023-12-28T14:13:01;14.00;94.90
10411;DHT22;5251;52.112;8.606;2023-12-28T14:15:27;14.00;95.10
10411;DHT22;5251;52.112;8.606;2023-12-28T14:17:52;14.00;95.20
10411;DHT22;5251;52.112;8.606;2023-12-28T14:20:18;14.00;94.90
10411;DHT22;5251;52.112;8.606;2023-12-28T14:22:44;14.00;94.70
10411;DHT22;5251;52.112;8.606;2023-12-28T14:25:10;13.90;94.70
10411;DHT22;5251;52.112;8.606;2023-12-28T14:27:37;13.90;95.20
10411;DHT22;5251;52.112;8.606;2023-12-28T14:30:04;13.90;94.60
10411;DHT22;5251;52.112;8.606;2023-12-28T14:32:31;13.90;94.40
10411;DHT22;5251;52.112;8.606;2023-12-28T14:34:57;13.90;94.30
10411;DHT22;5251;52.112;8.606;2023-12-28T14:37:23;13.80;94.10
10411;DHT22;5251;52.112;8.606;2023-12-28T14:39:49;13.80;94.00
10411;DHT22;5251;52.112;8.606;2023-12-28T14:42:14;13.80;94.00
10411;DHT22;5251;52.112;8.606;2023-12-28T14:44:40;13.80;94.20
10411;DHT22;5251;52.112;8.606;2023-12-28T14:47:05;13.80;94.30
10411;DHT22;5251;52.112;8.606;2023-12-28T14:49:31;13.80;94.00
10411;DHT22;5251;52.112;8.606;2023-12-28T14:51:57;13.80;94.10
10411;DHT22;5251;52.112;8.606;2023-12-28T14:54:22;13.80;94.00
10411;DHT22;5251;52.112;8.606;2023-12-28T14:56:48;13.80;94.00
10411;DHT22;5251;52.112;8.606;2023-12-28T14:59:14;13.80;94.10
10411;DHT22;5251;52.112;8.606;2023-12-28T15:01:39;13.80;93.70
10411;DHT22;5251;52.112;8.606;2023-12-28T15:04:06;13.80;93.50
10411;DHT22;5251;52.112;8.606;2023-12-28T15:06:31;13.70;93.70
10411;DHT22;5251;52.112;8.606;2023-12-28T15:08:57;13.70;93.70
10411;DHT22;5251;52.112;8.606;2023-12-28T15:11:23;13.70;93.70
10411;DHT22;5251;52.112;8.606;2023-12-28T15:13:49;13.70;93.50
10411;DHT22;5251;52.112;8.606;2023-12-28T15:16:15;13.70;93.50
10411;DHT22;5251;52.112;8.606;2023-12-28T15:18:41;13.70;93.30
10411;DHT22;5251;52.112;8.606;2023-12-28T15:21:07;13.70;93.30
10411;DHT22;5251;52.112;8.606;2023-12-28T15:23:33;13.70;93.20
10411;DHT22;5251;52.112;8.606;2023-12-28T15:25:59;13.70;93.40
10411;DHT22;5251;52.112;8.606;2023-12-28T15:28:25;13.70;93.50
10411;DHT22;5251;52.112;8.606;2023-12-28T15:30:50;13.60;93.40
10411;DHT22;5251;52.112;8.606;2023-12-28T15:33:16;13.60;93.00
10411;DHT22;5251;52.112;8.606;2023-12-28T15:35:41;13.60;93.10
10411;DHT22;5251;52.112;8.606;2023-12-28T15:38:07;13.50;93.20
10411;DHT22;5251;52.112;8.606;2023-12-28T15:40:34;13.50;93.10
10411;DHT22;5251;52.112;8.606;2023-12-28T15:43:00;13.50;93.20
10411;DHT22;5251;52.112;8.606;2023-12-28T15:45:25;13.40;93.00
10411;DHT22;5251;52.112;8.606;2023-12-28T15:47:52;13.40;93.10
10411;DHT22;5251;52.112;8.606;2023-12-28T15:50:19;13.40;93.30